Port Columbus International Airport Columbus US
ICAO: KCMH
IATA: CMH
Category: Large
Scheduled Services: Yes

Elevation: 815 ft
TransAlt. 18000 ft.

Airport Communications:
COLUMBUS APP/DEP:33.822
COLUMBUS APP/DEP:118.2
ATIS:124.6
CLNC DEL:126.3
GND:121.9
DAYTON RDO:122.2
TWR:132.7
UNICOM:122.95

KCMH Zoom In..

If you have problems with the map follow the link
https://www.worldairports.se/pages/airport.php?
ICAO=KCMH

Runways:

(A) RW 10L length 8000 ft width 150 ft
ILS 109.10 / hdg 101

(B) RW 10R length 10113 ft width 150 ft
ILS 111.75 / hdg 101

(C) RW 28L length 10113 ft width 150 ft
ILS 111.75 / hdg 281

(D) RW 28R length 8000 ft width 150 ft
ILS 109.10 / hdg 281

Location; KCMH
Day. 27 / Time. 04.51 Zulu
* Altimeter: 29.87
* Temperature: 02° c. 35.6°f.
* Wind from: 250° Speed 03 kn.
Dewpoint: -01° c.
Visibility: 9 Statute Miles.
Clouds: Scattered 3100 ft.
Clouds: Overcast 4900 ft.

KCMH 270451Z 25003KT 9SM SCT031 OVC049 02/M01 A2987 RMK AO2 CIG 030 NW SLP122 T00171011 400170000


Wind From 250°
Speed 03 kn.

 
 
jpsmedia worldairports.se 2020   terms of use